createdAt,value
2022-10-13T00:00:14.351Z,13.19
2022-10-13T00:01:18.930Z,13.32
2022-10-13T00:02:21.456Z,13.26
2022-10-13T00:03:24.441Z,13.27
2022-10-13T00:04:27.522Z,13.44
2022-10-13T00:05:30.657Z,13.34
2022-10-13T00:06:32.790Z,13.36
2022-10-13T00:07:34.975Z,13.41
2022-10-13T00:08:38.251Z,13.34
2022-10-13T00:09:40.365Z,13.43
2022-10-13T00:10:42.972Z,13.48
2022-10-13T00:11:46.985Z,13.51
2022-10-13T00:12:49.642Z,13.54
2022-10-13T00:13:56.387Z,13.81
2022-10-13T00:14:58.589Z,13.61
2022-10-13T00:16:02.452Z,13.81
2022-10-13T00:17:06.098Z,13.69
2022-10-13T00:18:09.189Z,13.73
2022-10-13T00:19:14.936Z,13.73
2022-10-13T00:20:17.424Z,13.74
2022-10-13T00:21:23.269Z,13.85
2022-10-13T00:22:27.515Z,13.93
2022-10-13T00:23:29.642Z,13.74
2022-10-13T00:24:31.801Z,13.67
2022-10-13T00:25:33.925Z,13.74
2022-10-13T00:26:36.070Z,13.79
2022-10-13T00:27:42.478Z,13.84
2022-10-13T00:28:49.735Z,13.81
2022-10-13T00:29:54.342Z,13.87
2022-10-13T00:30:56.965Z,13.85
2022-10-13T00:31:59.045Z,13.93
2022-10-13T00:33:01.253Z,13.89
2022-10-13T00:34:03.439Z,13.88
2022-10-13T00:35:05.934Z,14.00
2022-10-13T00:36:08.352Z,13.98
2022-10-13T00:37:10.524Z,14.04
2022-10-13T00:38:13.396Z,14.11
2022-10-13T00:39:15.523Z,14.09
2022-10-13T00:40:17.666Z,14.10
2022-10-13T00:41:21.189Z,14.17
2022-10-13T00:42:26.148Z,14.16
2022-10-13T00:43:59.955Z,14.48
2022-10-13T00:45:07.308Z,14.42
2022-10-13T00:46:10.279Z,14.24
2022-10-13T00:47:12.486Z,14.14
2022-10-13T00:48:14.637Z,14.10
2022-10-13T00:49:16.787Z,14.10
2022-10-13T00:50:27.541Z,14.36
2022-10-13T00:51:33.621Z,14.37
2022-10-13T00:52:37.142Z,14.36
2022-10-13T00:53:40.526Z,14.31
2022-10-13T00:54:43.089Z,14.28
2022-10-13T00:55:47.520Z,14.38
2022-10-13T00:56:51.157Z,14.27
2022-10-13T00:57:55.818Z,14.20
2022-10-13T00:59:11.341Z,14.41
2022-10-13T01:00:16.663Z,14.08
2022-10-13T01:01:18.982Z,14.02
2022-10-13T01:02:22.566Z,14.18
2022-10-13T01:03:26.406Z,14.21
2022-10-13T01:04:34.305Z,14.28
2022-10-13T01:05:37.618Z,14.00
2022-10-13T01:06:41.131Z,14.01
2022-10-13T01:07:48.260Z,14.04
2022-10-13T01:08:50.401Z,13.98
2022-10-13T01:09:52.911Z,13.97
2022-10-13T01:11:01.684Z,13.92
2022-10-13T01:12:18.609Z,14.19
2022-10-13T01:13:37.467Z,14.32
2022-10-13T01:14:55.729Z,14.26
2022-10-13T01:16:07.991Z,14.17
2022-10-13T01:17:16.403Z,14.27
2022-10-13T01:18:32.626Z,13.85
2022-10-13T01:19:51.221Z,14.16
2022-10-13T01:21:08.686Z,14.15
2022-10-13T01:22:31.123Z,14.10
2022-10-13T01:23:47.637Z,14.10
2022-10-13T01:25:21.807Z,14.10
2022-10-13T01:26:47.413Z,14.12
2022-10-13T01:28:28.342Z,14.04
2022-10-13T01:29:52.123Z,14.08
2022-10-13T01:31:31.536Z,14.08
2022-10-13T01:32:51.248Z,14.02
2022-10-13T01:33:59.221Z,14.01
2022-10-13T01:35:14.471Z,14.00
2022-10-13T01:36:32.093Z,13.97
2022-10-13T01:38:03.304Z,14.02
2022-10-13T01:39:24.086Z,14.17
2022-10-13T01:40:27.283Z,14.02
2022-10-13T01:41:36.885Z,14.09
2022-10-13T01:42:52.748Z,14.03
2022-10-13T01:44:13.035Z,14.07
2022-10-13T01:45:21.962Z,14.02
2022-10-13T01:46:29.532Z,13.99
2022-10-13T01:47:34.206Z,13.86
2022-10-13T01:48:39.482Z,13.84
2022-10-13T01:49:43.382Z,13.83
2022-10-13T01:50:48.065Z,13.86
2022-10-13T01:51:52.058Z,13.73
2022-10-13T01:52:55.352Z,13.82
2022-10-13T01:53:57.634Z,13.71
2022-10-13T01:55:06.601Z,14.03
2022-10-13T01:56:08.718Z,13.78
2022-10-13T01:57:47.234Z,14.12
2022-10-13T01:58:51.023Z,13.83
2022-10-13T01:59:53.212Z,13.69
2022-10-13T02:01:14.758Z,13.67
2022-10-13T02:02:46.400Z,14.07
2022-10-13T02:03:54.003Z,14.03
2022-10-13T02:05:01.034Z,13.98
2022-10-13T02:06:19.645Z,14.08
2022-10-13T02:07:33.831Z,14.10
2022-10-13T02:09:18.883Z,14.16
2022-10-13T02:10:33.483Z,14.09
2022-10-13T02:11:35.607Z,13.72
2022-10-13T02:12:51.474Z,14.06
2022-10-13T02:14:08.164Z,14.07
2022-10-13T02:15:14.359Z,14.04
2022-10-13T02:16:17.112Z,13.85
2022-10-13T02:17:19.627Z,13.90
2022-10-13T02:18:27.035Z,14.04
2022-10-13T02:19:30.928Z,13.93
2022-10-13T02:20:33.841Z,13.95
2022-10-13T02:21:36.140Z,13.86
2022-10-13T02:22:46.580Z,14.21
2022-10-13T02:23:48.819Z,13.92
2022-10-13T02:24:53.709Z,13.99
2022-10-13T02:25:59.192Z,14.03
2022-10-13T02:27:02.186Z,13.89
2022-10-13T02:28:05.504Z,14.01
2022-10-13T02:29:14.335Z,14.13
2022-10-13T02:30:25.128Z,14.40
2022-10-13T02:31:27.277Z,13.97
2022-10-13T02:32:29.761Z,13.95
2022-10-13T02:33:32.039Z,13.84
2022-10-13T02:34:34.130Z,13.94
2022-10-13T02:35:36.284Z,14.00
2022-10-13T02:36:39.642Z,14.10
2022-10-13T02:37:41.877Z,14.07
2022-10-13T02:38:45.268Z,13.98
2022-10-13T02:39:47.503Z,13.97
2022-10-13T02:40:52.143Z,13.98
2022-10-13T02:41:56.566Z,14.07
2022-10-13T02:42:58.811Z,13.95
2022-10-13T02:44:01.039Z,13.93
2022-10-13T02:45:10.210Z,14.06
2022-10-13T02:46:12.338Z,13.93
2022-10-13T02:47:14.496Z,13.95
2022-10-13T02:48:16.604Z,13.91
2022-10-13T02:49:18.719Z,14.02
2022-10-13T02:50:20.923Z,14.06
2022-10-13T02:51:25.989Z,14.08
2022-10-13T02:52:29.193Z,13.98
2022-10-13T02:53:31.593Z,13.97
2022-10-13T02:54:34.677Z,14.07
2022-10-13T02:55:36.895Z,14.02
2022-10-13T02:56:39.118Z,14.13
2022-10-13T02:57:41.222Z,14.10
2022-10-13T02:58:43.339Z,14.06
2022-10-13T02:59:45.886Z,14.09
2022-10-13T03:00:48.046Z,14.06
2022-10-13T03:01:50.256Z,14.10
2022-10-13T03:02:52.357Z,14.13
2022-10-13T03:03:54.557Z,14.26
2022-10-13T03:04:56.758Z,14.29
2022-10-13T03:05:58.965Z,14.21
2022-10-13T03:07:01.811Z,14.21
2022-10-13T03:08:04.578Z,14.32
2022-10-13T03:09:06.794Z,14.13
2022-10-13T03:10:09.233Z,14.10
2022-10-13T03:11:11.527Z,14.13
2022-10-13T03:12:13.646Z,14.10
2022-10-13T03:13:15.860Z,14.06
2022-10-13T03:14:18.087Z,14.18
2022-10-13T03:15:20.228Z,14.15
2022-10-13T03:16:24.116Z,14.19
2022-10-13T03:17:27.043Z,14.22
2022-10-13T03:18:30.118Z,14.25
2022-10-13T03:19:32.228Z,14.17
2022-10-13T03:20:35.175Z,14.11
2022-10-13T03:21:38.578Z,14.23
2022-10-13T03:22:40.743Z,14.12
2022-10-13T03:23:43.054Z,14.17
2022-10-13T03:24:45.388Z,14.24
2022-10-13T03:25:47.521Z,14.20
2022-10-13T03:26:49.807Z,14.20
2022-10-13T03:27:55.691Z,14.23
2022-10-13T03:28:57.972Z,14.17
2022-10-13T03:30:00.178Z,14.17
2022-10-13T03:31:08.264Z,14.46
2022-10-13T03:32:10.444Z,14.18
2022-10-13T03:33:12.932Z,14.24
2022-10-13T03:34:16.508Z,14.33
2022-10-13T03:35:18.690Z,14.19
2022-10-13T03:36:20.908Z,14.21
2022-10-13T03:37:25.494Z,14.15
2022-10-13T03:38:28.913Z,14.28
2022-10-13T03:39:31.066Z,14.17
2022-10-13T03:40:35.073Z,14.18
2022-10-13T03:41:37.292Z,14.07
2022-10-13T03:42:39.956Z,14.13
2022-10-13T03:43:43.750Z,14.23
2022-10-13T03:44:45.948Z,14.13
2022-10-13T03:45:58.983Z,14.54
2022-10-13T03:47:01.188Z,14.22
2022-10-13T03:48:03.488Z,14.10
2022-10-13T03:49:05.811Z,14.10
2022-10-13T03:50:08.755Z,14.24
2022-10-13T03:51:14.382Z,14.45
2022-10-13T03:52:20.554Z,14.24
2022-10-13T03:53:23.011Z,14.18
2022-10-13T03:54:25.201Z,14.24
2022-10-13T03:55:28.593Z,14.30
2022-10-13T03:56:30.861Z,14.31
2022-10-13T03:57:32.970Z,14.30
2022-10-13T03:58:35.189Z,14.31
2022-10-13T03:59:40.603Z,14.45
2022-10-13T04:00:42.765Z,14.14
2022-10-13T04:01:45.291Z,14.14
2022-10-13T04:02:49.570Z,14.43
2022-10-13T04:03:55.736Z,14.56
2022-10-13T04:04:57.946Z,14.32
2022-10-13T04:06:04.608Z,14.43
2022-10-13T04:07:08.273Z,14.48
2022-10-13T04:08:10.747Z,14.38
2022-10-13T04:09:13.065Z,14.35
2022-10-13T04:10:15.335Z,14.32
2022-10-13T04:11:18.816Z,14.40
2022-10-13T04:12:26.167Z,14.28
2022-10-13T04:13:29.043Z,14.30
2022-10-13T04:14:31.214Z,14.27
2022-10-13T04:15:40.357Z,14.38
2022-10-13T04:16:42.513Z,14.23
2022-10-13T04:17:44.660Z,14.16
2022-10-13T04:18:51.995Z,14.38
2022-10-13T04:19:54.148Z,14.08
2022-10-13T04:20:56.278Z,14.08
2022-10-13T04:21:58.390Z,14.02
2022-10-13T04:23:00.499Z,14.13
2022-10-13T04:24:04.104Z,14.30
2022-10-13T04:25:07.045Z,14.30
2022-10-13T04:26:17.191Z,14.55
2022-10-13T04:27:20.104Z,14.32
2022-10-13T04:28:22.355Z,14.22
2022-10-13T04:29:24.588Z,14.26
2022-10-13T04:30:27.251Z,14.23
2022-10-13T04:31:30.420Z,14.40
2022-10-13T04:32:32.940Z,14.40
2022-10-13T04:33:37.975Z,14.27
2022-10-13T04:34:40.198Z,14.12
2022-10-13T04:35:42.315Z,14.17
2022-10-13T04:36:44.427Z,14.25
2022-10-13T04:37:46.581Z,14.18
2022-10-13T04:38:49.358Z,14.36
2022-10-13T04:39:51.610Z,14.29
2022-10-13T04:40:53.782Z,14.26
2022-10-13T04:41:55.907Z,14.25
2022-10-13T04:42:58.371Z,14.33
2022-10-13T04:44:02.448Z,14.32
2022-10-13T04:45:04.999Z,14.23
2022-10-13T04:46:15.445Z,14.24
2022-10-13T04:47:17.568Z,14.22
2022-10-13T04:48:19.697Z,14.26
2022-10-13T04:49:21.967Z,14.27
2022-10-13T04:50:24.122Z,14.32
2022-10-13T04:51:33.528Z,14.38
2022-10-13T04:52:36.330Z,14.47
2022-10-13T04:53:38.755Z,14.44
2022-10-13T04:54:44.408Z,14.33
2022-10-13T04:55:46.523Z,14.31
2022-10-13T04:56:48.670Z,14.27
2022-10-13T04:57:50.767Z,14.26
2022-10-13T04:58:53.449Z,14.28
2022-10-13T04:59:55.574Z,14.18
2022-10-13T05:00:58.034Z,14.23
2022-10-13T05:02:00.801Z,14.29
2022-10-13T05:03:02.968Z,14.23
2022-10-13T05:04:05.918Z,14.28
2022-10-13T05:05:10.919Z,14.19
2022-10-13T05:06:18.537Z,14.45
2022-10-13T05:07:23.595Z,14.17
2022-10-13T05:08:26.056Z,14.24
2022-10-13T05:09:28.228Z,14.18
2022-10-13T05:10:34.679Z,14.11
2022-10-13T05:11:37.044Z,14.15
2022-10-13T05:12:39.183Z,14.14
2022-10-13T05:13:41.482Z,14.20
2022-10-13T05:14:43.625Z,14.28
2022-10-13T05:15:45.766Z,14.21
2022-10-13T05:16:49.627Z,14.20
2022-10-13T05:17:51.774Z,14.28
2022-10-13T05:18:55.280Z,14.36
2022-10-13T05:19:57.401Z,14.29
2022-10-13T05:21:07.205Z,14.48
2022-10-13T05:22:11.891Z,14.29
2022-10-13T05:23:17.384Z,14.33
2022-10-13T05:24:30.702Z,14.23
2022-10-13T05:25:35.277Z,14.41
2022-10-13T05:26:37.426Z,14.14
2022-10-13T05:27:39.654Z,14.19
2022-10-13T05:28:45.663Z,14.24
2022-10-13T05:29:47.855Z,14.14
2022-10-13T05:30:49.975Z,14.20
2022-10-13T05:31:52.146Z,14.19
2022-10-13T05:32:54.567Z,14.14
2022-10-13T05:33:57.422Z,14.18
2022-10-13T05:34:59.538Z,14.19
2022-10-13T05:36:13.622Z,14.44
2022-10-13T05:37:17.103Z,14.18
2022-10-13T05:38:23.747Z,14.20
2022-10-13T05:39:29.060Z,14.24
2022-10-13T05:40:31.201Z,14.28
2022-10-13T05:41:35.656Z,14.29
2022-10-13T05:42:41.674Z,14.19
2022-10-13T05:43:45.344Z,14.17
2022-10-13T05:44:47.512Z,14.17
2022-10-13T05:45:49.797Z,14.21
2022-10-13T05:46:55.034Z,14.16
2022-10-13T05:47:57.173Z,14.16
2022-10-13T05:48:59.311Z,14.14
2022-10-13T05:50:02.553Z,14.17
2022-10-13T05:51:20.727Z,14.52
2022-10-13T05:52:25.553Z,14.40
2022-10-13T05:53:32.256Z,14.38
2022-10-13T05:54:40.218Z,14.50
2022-10-13T05:55:43.052Z,14.26
2022-10-13T05:56:56.288Z,14.52
2022-10-13T05:57:58.522Z,14.26
2022-10-13T05:59:04.676Z,14.42
2022-10-13T06:00:13.495Z,14.46
2022-10-13T06:01:21.397Z,14.45
2022-10-13T06:02:26.726Z,14.44
2022-10-13T06:03:29.887Z,14.28
2022-10-13T06:04:37.526Z,14.46
2022-10-13T06:05:40.746Z,14.34
2022-10-13T06:06:42.958Z,14.30
2022-10-13T06:07:47.062Z,14.39
2022-10-13T06:08:50.903Z,14.38
2022-10-13T06:09:53.126Z,14.22
2022-10-13T06:10:55.428Z,14.18
2022-10-13T06:11:58.554Z,14.28
2022-10-13T06:13:00.747Z,14.29
2022-10-13T06:14:02.913Z,14.33
2022-10-13T06:15:05.561Z,14.35
2022-10-13T06:16:07.786Z,14.33
2022-10-13T06:17:09.935Z,14.38
2022-10-13T06:18:12.587Z,14.43
2022-10-13T06:19:14.769Z,14.40
2022-10-13T06:20:16.877Z,14.39
2022-10-13T06:21:19.026Z,14.39
2022-10-13T06:22:22.517Z,14.41
2022-10-13T06:23:25.732Z,14.43
2022-10-13T06:24:28.137Z,14.41
2022-10-13T06:25:30.538Z,14.46
2022-10-13T06:26:33.154Z,14.60
2022-10-13T06:27:35.442Z,14.46
2022-10-13T06:28:38.016Z,14.54
2022-10-13T06:29:40.245Z,14.56
2022-10-13T06:30:43.604Z,14.61
2022-10-13T06:31:45.720Z,14.62
2022-10-13T06:32:47.844Z,14.50
2022-10-13T06:33:50.075Z,14.50
2022-10-13T06:34:52.241Z,14.47
2022-10-13T06:35:54.389Z,14.57
2022-10-13T06:36:56.502Z,14.61
2022-10-13T06:37:58.653Z,14.65
2022-10-13T06:39:00.776Z,14.67
2022-10-13T06:40:03.409Z,14.73
2022-10-13T06:41:05.932Z,14.73
2022-10-13T06:42:11.471Z,14.73
2022-10-13T06:43:13.666Z,14.87
2022-10-13T06:44:18.455Z,14.83
2022-10-13T06:45:20.605Z,14.86
2022-10-13T06:46:22.775Z,14.66
2022-10-13T06:47:24.994Z,14.71
2022-10-13T06:48:30.013Z,14.90
2022-10-13T06:49:32.540Z,14.87
2022-10-13T06:50:35.145Z,14.91
2022-10-13T06:51:38.539Z,14.67
2022-10-13T06:52:40.746Z,14.57
2022-10-13T06:53:42.967Z,14.60
2022-10-13T06:54:45.364Z,14.64
2022-10-13T06:55:52.233Z,14.63
2022-10-13T06:56:54.662Z,14.82
2022-10-13T06:57:56.938Z,14.98
2022-10-13T06:58:59.278Z,15.06
2022-10-13T07:00:01.578Z,15.10
2022-10-13T07:01:04.921Z,15.19
2022-10-13T07:02:07.137Z,15.19
2022-10-13T07:03:10.761Z,15.34
2022-10-13T07:04:13.348Z,15.22
2022-10-13T07:05:15.573Z,15.16
2022-10-13T07:06:18.004Z,15.26
2022-10-13T07:07:20.131Z,15.26
2022-10-13T07:08:23.127Z,15.29
2022-10-13T07:09:25.311Z,15.32
2022-10-13T07:10:27.803Z,15.35
2022-10-13T07:11:30.117Z,15.37
2022-10-13T07:12:34.614Z,15.44
2022-10-13T07:13:37.663Z,15.35
2022-10-13T07:14:43.861Z,15.46
2022-10-13T07:15:46.434Z,15.35
2022-10-13T07:16:49.159Z,15.52
2022-10-13T07:17:53.886Z,15.71
2022-10-13T07:18:56.031Z,15.56
2022-10-13T07:19:58.666Z,15.71
2022-10-13T07:21:03.148Z,15.82
2022-10-13T07:22:05.288Z,15.91
2022-10-13T07:23:07.423Z,15.92
2022-10-13T07:24:11.606Z,16.22
2022-10-13T07:25:15.189Z,16.29
2022-10-13T07:26:17.605Z,16.22
2022-10-13T07:27:19.843Z,16.03
2022-10-13T07:28:26.111Z,16.19
2022-10-13T07:29:29.586Z,16.10
2022-10-13T07:30:31.747Z,16.27
2022-10-13T07:31:34.741Z,16.35
2022-10-13T07:32:37.227Z,16.33
2022-10-13T07:33:44.621Z,16.48
2022-10-13T07:34:46.863Z,16.23
2022-10-13T07:35:49.071Z,16.25
2022-10-13T07:36:51.337Z,16.16
2022-10-13T07:37:54.021Z,16.19
2022-10-13T07:38:56.395Z,16.33
2022-10-13T07:40:01.772Z,16.31
2022-10-13T07:41:11.509Z,16.61
2022-10-13T07:42:17.127Z,16.58
2022-10-13T07:43:19.323Z,16.49
2022-10-13T07:44:23.011Z,16.64
2022-10-13T07:45:25.639Z,16.15
2022-10-13T07:46:27.892Z,16.32
2022-10-13T07:47:30.078Z,16.25
2022-10-13T07:48:33.440Z,16.41
2022-10-13T07:49:37.530Z,16.35
2022-10-13T07:50:43.435Z,16.74
2022-10-13T07:51:48.674Z,16.51
2022-10-13T07:52:55.608Z,16.51
2022-10-13T07:53:58.319Z,16.40
2022-10-13T07:55:00.440Z,16.50
2022-10-13T07:56:05.182Z,16.76
2022-10-13T07:57:07.393Z,16.58
2022-10-13T07:58:10.099Z,16.70
2022-10-13T07:59:12.680Z,16.83
2022-10-13T08:00:15.082Z,16.82
2022-10-13T08:01:17.529Z,16.94
2022-10-13T08:02:20.386Z,16.99
2022-10-13T08:03:22.820Z,16.89
2022-10-13T08:04:25.535Z,17.04
2022-10-13T08:05:27.888Z,16.96
2022-10-13T08:06:30.137Z,17.07
2022-10-13T08:07:33.537Z,17.16
2022-10-13T08:08:36.476Z,17.21
2022-10-13T08:09:38.659Z,17.10
2022-10-13T08:10:40.905Z,17.28
2022-10-13T08:11:43.115Z,17.31
2022-10-13T08:12:45.424Z,17.36
2022-10-13T08:13:50.301Z,17.33
2022-10-13T08:15:00.501Z,17.41
2022-10-13T08:16:05.810Z,17.10
2022-10-13T08:17:07.950Z,16.73
2022-10-13T08:18:11.677Z,17.09
2022-10-13T08:19:15.401Z,17.20
2022-10-13T08:20:17.612Z,17.23
2022-10-13T08:22:44.373Z,17.28
2022-10-13T08:23:46.912Z,17.13
2022-10-13T08:24:56.138Z,17.65
2022-10-13T08:25:58.685Z,17.48
2022-10-13T08:27:00.813Z,17.44
2022-10-13T08:28:03.007Z,17.49
2022-10-13T08:29:22.325Z,17.55
2022-10-13T08:30:25.471Z,17.62
2022-10-13T08:31:27.979Z,17.51
2022-10-13T08:32:30.774Z,17.54
2022-10-13T08:33:32.910Z,17.69
2022-10-13T08:34:36.822Z,17.85
2022-10-13T08:35:39.248Z,18.01
2022-10-13T08:36:41.408Z,17.91
2022-10-13T08:37:43.509Z,17.86
2022-10-13T08:38:45.980Z,17.81
2022-10-13T08:39:48.954Z,18.04
2022-10-13T08:40:51.562Z,17.90
2022-10-13T08:41:55.401Z,17.79
2022-10-13T08:43:00.344Z,17.91
2022-10-13T08:46:09.570Z,17.98
2022-10-13T08:47:30.241Z,18.35
2022-10-13T08:48:36.781Z,18.14
2022-10-13T08:49:42.514Z,18.14
2022-10-13T08:50:47.617Z,18.15
2022-10-13T08:51:49.790Z,17.97
2022-10-13T08:53:02.779Z,18.44
2022-10-13T08:54:05.816Z,18.30
2022-10-13T08:55:17.672Z,18.52
2022-10-13T08:56:30.308Z,18.57
2022-10-13T08:57:32.422Z,18.16
2022-10-13T08:58:37.006Z,18.32
2022-10-13T08:59:39.985Z,18.00
2022-10-13T09:00:42.708Z,18.36
2022-10-13T09:01:54.497Z,18.40
2022-10-13T09:03:19.548Z,18.55
2022-10-13T09:04:30.018Z,18.60
2022-10-13T09:05:41.942Z,18.82
2022-10-13T09:06:53.012Z,18.85
2022-10-13T09:07:58.086Z,18.79
2022-10-13T09:09:07.429Z,18.87
2022-10-13T09:10:09.823Z,18.60
2022-10-13T09:11:12.987Z,18.91
2022-10-13T09:12:15.796Z,19.03
2022-10-13T09:13:19.713Z,18.87
2022-10-13T09:14:28.209Z,19.27
2022-10-13T09:15:30.345Z,18.55
2022-10-13T09:16:41.122Z,19.29
2022-10-13T09:18:08.196Z,19.32
2022-10-13T09:19:27.449Z,18.87
2022-10-13T09:20:29.634Z,18.56
2022-10-13T09:21:31.773Z,18.28
2022-10-13T09:22:36.776Z,18.40
2022-10-13T09:23:41.171Z,18.39
2022-10-13T09:24:44.348Z,18.22
2022-10-13T09:25:58.590Z,18.73
2022-10-13T09:27:11.613Z,18.63
2022-10-13T09:28:27.839Z,18.13
2022-10-13T09:29:30.088Z,18.31
2022-10-13T09:30:36.763Z,18.81
2022-10-13T09:31:38.892Z,18.56
2022-10-13T09:32:43.905Z,18.71
2022-10-13T09:33:46.751Z,18.69
2022-10-13T09:34:51.541Z,18.86
2022-10-13T09:35:56.271Z,19.34
2022-10-13T09:37:04.427Z,19.46
2022-10-13T09:38:20.280Z,20.00
2022-10-13T09:39:22.749Z,20.29
2022-10-13T09:40:24.980Z,20.67
2022-10-13T09:41:27.152Z,20.55
2022-10-13T09:42:31.735Z,20.83
2022-10-13T09:43:41.395Z,21.15
2022-10-13T09:44:43.595Z,21.08
2022-10-13T09:45:45.814Z,21.01
2022-10-13T09:46:52.399Z,21.70
2022-10-13T09:48:05.658Z,21.55
2022-10-13T09:49:32.055Z,21.67
2022-10-13T09:50:35.915Z,21.84
2022-10-13T09:51:42.535Z,22.26
2022-10-13T09:53:26.571Z,22.68
2022-10-13T09:54:38.540Z,22.28
2022-10-13T09:55:41.291Z,22.16
2022-10-13T09:56:54.689Z,22.02
2022-10-13T09:58:05.802Z,21.99
2022-10-13T09:59:19.795Z,21.32
2022-10-13T10:00:23.474Z,21.08
2022-10-13T10:01:30.914Z,20.95
2022-10-13T10:02:42.366Z,20.88
2022-10-13T10:03:45.239Z,19.71
2022-10-13T10:04:47.604Z,19.83
2022-10-13T10:05:56.196Z,20.15
2022-10-13T10:06:58.407Z,19.98
2022-10-13T10:08:11.266Z,19.56
2022-10-13T10:09:37.346Z,19.79
2022-10-13T10:10:41.337Z,19.92
2022-10-13T10:11:47.670Z,19.96
2022-10-13T10:12:50.218Z,19.61
2022-10-13T10:13:52.813Z,19.67
2022-10-13T10:14:55.615Z,19.30
2022-10-13T10:16:38.634Z,19.61
2022-10-13T10:17:49.056Z,19.34
2022-10-13T10:18:59.094Z,18.89
2022-10-13T10:20:22.621Z,19.39
2022-10-13T10:21:34.791Z,18.96
2022-10-13T10:22:39.480Z,19.14
2022-10-13T10:23:57.255Z,19.23
2022-10-13T10:25:02.123Z,19.30
2022-10-13T10:26:20.776Z,18.85
2022-10-13T10:27:28.681Z,19.04
2022-10-13T10:28:30.703Z,18.75
2022-10-13T10:29:58.303Z,19.41
2022-10-13T10:31:34.657Z,19.48
2022-10-13T10:32:58.520Z,19.11
2022-10-13T10:34:16.635Z,19.11
2022-10-13T10:35:33.170Z,19.46
2022-10-13T10:36:50.037Z,19.50
2022-10-13T10:38:16.367Z,19.63
2022-10-13T10:39:42.278Z,19.85
2022-10-13T10:41:14.594Z,19.86
2022-10-13T10:42:52.344Z,19.90
2022-10-13T10:44:08.485Z,20.00
2022-10-13T10:45:38.854Z,19.98
2022-10-13T10:46:46.949Z,19.59
2022-10-13T10:47:55.294Z,19.44
2022-10-13T10:49:02.678Z,19.87
2022-10-13T10:50:07.126Z,19.72
2022-10-13T10:51:11.411Z,19.92
2022-10-13T10:52:44.347Z,20.39
2022-10-13T10:54:18.550Z,20.47
2022-10-13T10:55:36.985Z,20.36
2022-10-13T10:56:44.644Z,20.79
2022-10-13T10:58:01.050Z,21.19
2022-10-13T10:59:43.124Z,21.14
2022-10-13T11:01:11.374Z,21.15
2022-10-13T11:02:46.206Z,21.16
2022-10-13T11:03:58.002Z,20.83
2022-10-13T11:05:05.308Z,20.11
2022-10-13T11:06:17.533Z,20.77
2022-10-13T11:07:22.591Z,20.59
2022-10-13T11:08:40.054Z,20.88
2022-10-13T11:09:42.231Z,20.56
2022-10-13T11:10:44.397Z,20.74
2022-10-13T11:11:47.067Z,19.92
2022-10-13T11:12:52.749Z,20.53
2022-10-13T11:14:06.165Z,20.72
2022-10-13T11:15:14.057Z,20.62
2022-10-13T11:16:41.152Z,20.75
2022-10-13T11:17:48.271Z,20.56
2022-10-13T11:19:05.345Z,20.80
2022-10-13T11:20:35.943Z,20.67
2022-10-13T11:22:04.066Z,20.88
2022-10-13T11:23:13.004Z,20.98
2022-10-13T11:24:33.485Z,21.54
2022-10-13T11:25:35.765Z,21.61
2022-10-13T11:26:42.956Z,21.78
2022-10-13T11:27:45.177Z,20.92
2022-10-13T11:28:47.997Z,21.30
2022-10-13T11:29:55.101Z,21.34
2022-10-13T11:31:24.221Z,22.01
2022-10-13T11:32:35.321Z,21.92
2022-10-13T11:33:38.546Z,21.93
2022-10-13T11:35:04.198Z,22.25
2022-10-13T11:36:43.761Z,22.29
2022-10-13T11:38:07.357Z,22.20
2022-10-13T11:39:28.533Z,21.22
2022-10-13T11:40:39.670Z,20.94
2022-10-13T11:41:46.539Z,21.00
2022-10-13T11:43:05.277Z,20.95
2022-10-13T11:44:36.805Z,20.56
2022-10-13T11:45:44.845Z,20.52
2022-10-13T11:47:11.418Z,21.24
2022-10-13T11:48:42.741Z,21.86
2022-10-13T11:50:00.808Z,22.54
2022-10-13T11:51:31.140Z,22.61
2022-10-13T11:52:48.317Z,22.65
2022-10-13T11:54:04.539Z,22.15
2022-10-13T11:55:18.645Z,22.35
2022-10-13T11:56:31.775Z,22.38
2022-10-13T11:57:33.937Z,22.23
2022-10-13T11:58:42.347Z,21.14
2022-10-13T11:59:47.489Z,21.64
2022-10-13T12:01:15.928Z,21.99
2022-10-13T12:02:19.315Z,21.69
2022-10-13T12:03:31.511Z,22.05
2022-10-13T12:04:33.673Z,21.79
2022-10-13T12:05:36.022Z,21.58
2022-10-13T12:06:40.363Z,21.84
2022-10-13T12:07:42.906Z,21.63
2022-10-13T12:08:47.896Z,21.93
2022-10-13T12:09:52.311Z,21.78
2022-10-13T12:10:59.939Z,21.03
2022-10-13T12:12:22.732Z,21.66
2022-10-13T12:13:28.323Z,21.60
2022-10-13T12:14:43.329Z,22.12
2022-10-13T12:15:45.843Z,21.89
2022-10-13T12:18:22.365Z,21.48
2022-10-13T12:19:27.452Z,21.06
2022-10-13T12:20:33.148Z,21.21
2022-10-13T12:21:52.105Z,21.77
2022-10-13T12:22:55.262Z,21.09
2022-10-13T12:24:08.435Z,21.22
2022-10-13T12:25:18.444Z,21.17
2022-10-13T12:26:22.935Z,21.43
2022-10-13T12:27:25.415Z,20.95
2022-10-13T12:28:43.115Z,21.21
2022-10-13T12:29:45.483Z,20.90
2022-10-13T12:30:57.218Z,21.38
2022-10-13T12:31:59.566Z,21.22
2022-10-13T12:33:02.238Z,21.26
2022-10-13T12:34:04.461Z,20.86
2022-10-13T12:35:28.458Z,21.70
2022-10-13T12:36:33.654Z,21.47
2022-10-13T12:37:37.322Z,21.45
2022-10-13T12:38:44.025Z,22.03
2022-10-13T12:39:46.290Z,22.00
2022-10-13T12:40:49.984Z,22.29
2022-10-13T12:41:53.274Z,21.91
2022-10-13T12:42:56.074Z,22.41
2022-10-13T12:44:01.135Z,22.59
2022-10-13T12:45:07.265Z,22.51
2022-10-13T12:46:09.787Z,22.22
2022-10-13T12:47:47.292Z,22.55
2022-10-13T12:48:51.211Z,22.39
2022-10-13T12:50:27.387Z,22.98
2022-10-13T12:51:29.574Z,22.72
2022-10-13T12:52:34.443Z,22.96
2022-10-13T12:53:38.047Z,23.32
2022-10-13T12:54:55.443Z,23.30
2022-10-13T12:56:00.709Z,23.31
2022-10-13T12:57:07.378Z,23.44
2022-10-13T12:58:20.011Z,23.24
2022-10-13T12:59:24.290Z,22.81
2022-10-13T13:00:28.836Z,22.82
2022-10-13T13:01:34.226Z,22.45
2022-10-13T13:02:36.435Z,21.96
2022-10-13T13:03:40.115Z,21.99
2022-10-13T13:04:43.828Z,21.84
2022-10-13T13:05:51.671Z,21.73
2022-10-13T13:06:58.717Z,21.99
2022-10-13T13:08:02.148Z,21.66
2022-10-13T13:09:24.235Z,21.76
2022-10-13T13:10:26.665Z,21.47
2022-10-13T13:11:37.480Z,21.69
2022-10-13T13:12:40.327Z,21.22
2022-10-13T13:13:49.238Z,21.21
2022-10-13T13:14:54.876Z,21.04
2022-10-13T13:16:23.224Z,21.62
2022-10-13T13:18:53.929Z,20.57
2022-10-13T13:19:57.416Z,20.72
2022-10-13T13:20:59.571Z,20.63
2022-10-13T13:22:03.865Z,20.95
2022-10-13T13:23:06.016Z,20.42
2022-10-13T13:24:21.735Z,20.36
2022-10-13T13:25:30.342Z,20.53
2022-10-13T13:26:32.466Z,20.62
2022-10-13T13:27:37.383Z,20.56
2022-10-13T13:28:44.590Z,20.59
2022-10-13T13:29:48.642Z,20.68
2022-10-13T13:30:50.749Z,20.64
2022-10-13T13:31:52.911Z,20.54
2022-10-13T13:32:55.132Z,20.55
2022-10-13T13:33:57.298Z,20.26
2022-10-13T13:34:59.427Z,20.48
2022-10-13T13:36:01.789Z,20.48
2022-10-13T13:37:03.916Z,20.53
2022-10-13T13:38:06.080Z,20.34
2022-10-13T13:39:18.305Z,20.33
2022-10-13T13:40:26.070Z,20.14
2022-10-13T13:41:30.973Z,19.84
2022-10-13T13:42:33.370Z,19.98
2022-10-13T13:43:35.480Z,20.26
2022-10-13T13:44:37.606Z,20.34
2022-10-13T13:45:39.903Z,19.96
2022-10-13T13:46:43.518Z,19.60
2022-10-13T13:47:47.195Z,19.93
2022-10-13T13:48:49.422Z,19.73
2022-10-13T13:49:56.185Z,19.52
2022-10-13T13:50:58.378Z,19.58
2022-10-13T13:52:01.731Z,19.79
2022-10-13T13:53:04.801Z,19.73
2022-10-13T13:54:06.966Z,19.59
2022-10-13T13:55:09.557Z,19.90
2022-10-13T13:56:14.056Z,19.88
2022-10-13T13:57:16.648Z,19.18
2022-10-13T13:58:18.836Z,19.32
2022-10-13T13:59:20.932Z,19.26
2022-10-13T14:00:28.130Z,19.41
2022-10-13T14:01:32.237Z,19.53
2022-10-13T14:02:34.556Z,19.50
2022-10-13T14:03:36.749Z,19.74
2022-10-13T14:04:40.993Z,19.77
2022-10-13T14:05:43.225Z,19.60
2022-10-13T14:06:45.691Z,19.79
2022-10-13T14:07:47.868Z,19.84
2022-10-13T14:08:50.235Z,19.61
2022-10-13T14:09:53.781Z,19.76
2022-10-13T14:10:58.126Z,19.89
2022-10-13T14:12:00.325Z,19.83
2022-10-13T14:13:02.439Z,19.22
2022-10-13T14:14:04.585Z,18.97
2022-10-13T14:15:07.317Z,19.14
2022-10-13T14:16:16.766Z,19.63
2022-10-13T14:17:18.920Z,19.18
2022-10-13T14:18:21.038Z,19.42
2022-10-13T14:19:23.254Z,19.56
2022-10-13T14:20:25.370Z,18.98
2022-10-13T14:21:27.496Z,19.16
2022-10-13T14:22:32.323Z,19.53
2022-10-13T14:23:35.465Z,19.70
2022-10-13T14:24:37.582Z,19.55